createdAt,value
2023-04-15T00:01:52.577Z,8.93
2023-04-15T00:04:20.795Z,9.80
2023-04-15T00:06:54.579Z,6.50
2023-04-15T00:09:21.523Z,8.23
2023-04-15T00:11:48.438Z,7.63
2023-04-15T00:14:15.565Z,8.23
2023-04-15T00:16:42.602Z,10.10
2023-04-15T00:19:09.501Z,8.75
2023-04-15T00:21:36.976Z,9.60
2023-04-15T00:24:03.853Z,8.38
2023-04-15T00:26:30.614Z,12.00
2023-04-15T00:28:58.155Z,7.72
2023-04-15T00:31:25.383Z,7.45
2023-04-15T00:33:52.624Z,7.30
2023-04-15T00:36:19.431Z,8.95
2023-04-15T00:38:46.771Z,8.18
2023-04-15T00:41:13.541Z,9.23
2023-04-15T00:43:40.851Z,8.93
2023-04-15T00:46:09.490Z,9.52
2023-04-15T00:48:37.330Z,6.82
2023-04-15T00:51:04.466Z,9.63
2023-04-15T00:53:31.498Z,11.85
2023-04-15T00:55:58.464Z,8.73
2023-04-15T00:58:26.352Z,9.85
2023-04-15T01:00:54.539Z,8.70
2023-04-15T01:03:21.752Z,13.98
2023-04-15T01:05:49.871Z,8.13
2023-04-15T01:08:17.366Z,8.98
2023-04-15T01:10:44.157Z,11.60
2023-04-15T01:13:10.899Z,9.32
2023-04-15T01:15:38.659Z,8.75
2023-04-15T01:18:06.104Z,9.00
2023-04-15T01:20:34.456Z,13.98
2023-04-15T01:23:01.486Z,7.35
2023-04-15T01:25:33.297Z,12.70
2023-04-15T01:28:00.715Z,8.85
2023-04-15T01:30:27.650Z,9.80
2023-04-15T01:32:54.813Z,9.65
2023-04-15T01:35:22.508Z,9.23
2023-04-15T01:37:51.996Z,8.60
2023-04-15T01:40:18.781Z,10.80
2023-04-15T01:42:45.875Z,8.88
2023-04-15T01:45:13.933Z,10.55
2023-04-15T01:47:40.713Z,8.93
2023-04-15T01:50:10.562Z,10.32
2023-04-15T01:52:37.531Z,9.40
2023-04-15T01:55:04.952Z,8.68
2023-04-15T01:57:32.196Z,10.25
2023-04-15T01:59:59.031Z,8.23
2023-04-15T02:02:25.831Z,12.27
2023-04-15T02:04:55.809Z,8.50
2023-04-15T02:07:22.661Z,10.15
2023-04-15T02:09:49.375Z,18.58
2023-04-15T02:12:16.124Z,11.23
2023-04-15T02:14:42.865Z,9.52
2023-04-15T02:17:09.611Z,10.80
2023-04-15T02:19:36.712Z,12.32
2023-04-15T02:22:04.074Z,11.75
2023-04-15T02:24:31.290Z,13.20
2023-04-15T02:26:58.530Z,10.65
2023-04-15T02:29:25.650Z,13.27
2023-04-15T02:31:52.479Z,12.18
2023-04-15T02:34:21.040Z,11.82
2023-04-15T02:36:51.688Z,11.25
2023-04-15T02:39:19.092Z,11.02
2023-04-15T02:41:51.746Z,12.68
2023-04-15T02:46:54.724Z,13.18
2023-04-15T02:49:21.942Z,12.93
2023-04-15T02:51:49.738Z,9.70
2023-04-15T02:54:18.092Z,11.23
2023-04-15T02:56:45.049Z,10.80
2023-04-15T02:59:12.956Z,8.95
2023-04-15T03:01:39.712Z,10.98
2023-04-15T03:04:08.952Z,12.60
2023-04-15T03:06:36.293Z,12.73
2023-04-15T03:09:03.746Z,15.05
2023-04-15T03:11:37.037Z,12.52
2023-04-15T03:14:06.136Z,14.10
2023-04-15T03:16:35.992Z,14.38
2023-04-15T03:19:04.456Z,14.52
2023-04-15T03:21:38.266Z,15.32
2023-04-15T03:24:06.092Z,12.00
2023-04-15T03:26:33.286Z,15.85
2023-04-15T03:29:04.029Z,13.05
2023-04-15T03:31:31.506Z,11.98
2023-04-15T03:34:00.524Z,11.48
2023-04-15T03:36:31.975Z,12.48
2023-04-15T03:38:59.591Z,14.13
2023-04-15T03:41:26.897Z,11.73
2023-04-15T03:43:56.365Z,12.98
2023-04-15T03:46:23.240Z,14.45
2023-04-15T03:48:50.269Z,13.75
2023-04-15T03:51:17.524Z,12.07
2023-04-15T03:53:44.198Z,12.27
2023-04-15T03:56:11.417Z,14.25
2023-04-15T03:58:38.325Z,17.00
2023-04-15T04:01:05.239Z,14.93
2023-04-15T04:03:32.204Z,17.30
2023-04-15T04:05:59.558Z,13.38
2023-04-15T04:08:27.431Z,15.40
2023-04-15T04:10:54.285Z,17.67
2023-04-15T04:13:21.017Z,17.85
2023-04-15T04:15:48.019Z,17.00
2023-04-15T04:18:14.918Z,20.98
2023-04-15T04:20:41.932Z,18.83
2023-04-15T04:23:08.724Z,19.55
2023-04-15T04:25:35.698Z,15.75
2023-04-15T04:28:02.517Z,17.13
2023-04-15T04:30:30.855Z,18.23
2023-04-15T04:33:01.713Z,17.42
2023-04-15T04:35:28.430Z,18.67
2023-04-15T04:37:55.365Z,16.70
2023-04-15T04:40:22.325Z,17.08
2023-04-15T04:42:53.806Z,16.27
2023-04-15T04:45:20.800Z,17.60
2023-04-15T04:47:48.850Z,18.38
2023-04-15T04:50:15.932Z,19.17
2023-04-15T04:52:42.639Z,23.63
2023-04-15T04:55:09.557Z,19.83
2023-04-15T04:57:36.419Z,20.48
2023-04-15T05:00:05.101Z,18.40
2023-04-15T05:02:33.564Z,18.17
2023-04-15T05:05:00.570Z,21.75
2023-04-15T05:07:27.593Z,19.08
2023-04-15T05:09:54.348Z,22.02
2023-04-15T05:12:21.157Z,18.80
2023-04-15T05:14:48.142Z,19.58
2023-04-15T05:17:15.547Z,21.00
2023-04-15T05:19:42.298Z,18.17
2023-04-15T05:22:09.047Z,23.17
2023-04-15T05:24:36.101Z,22.15
2023-04-15T05:27:03.083Z,19.42
2023-04-15T05:29:30.398Z,17.55
2023-04-15T05:31:57.183Z,16.90
2023-04-15T05:34:24.009Z,16.02
2023-04-15T05:36:50.751Z,20.63
2023-04-15T05:39:17.625Z,18.73
2023-04-15T05:41:44.950Z,16.85
2023-04-15T05:44:12.321Z,21.95
2023-04-15T05:46:39.213Z,20.90
2023-04-15T05:49:06.266Z,20.42
2023-04-15T05:51:33.055Z,20.25
2023-04-15T05:53:59.956Z,19.65
2023-04-15T05:56:27.141Z,21.52
2023-04-15T05:58:54.008Z,21.13
2023-04-15T06:01:21.194Z,18.98
2023-04-15T06:03:49.083Z,21.17
2023-04-15T06:06:16.370Z,21.73
2023-04-15T06:08:43.282Z,20.42
2023-04-15T06:11:10.395Z,19.88
2023-04-15T06:13:37.363Z,18.52
2023-04-15T06:16:04.833Z,23.67
2023-04-15T06:18:31.629Z,19.20
2023-04-15T06:20:58.940Z,23.00
2023-04-15T06:23:28.980Z,19.67
2023-04-15T06:25:55.996Z,21.98
2023-04-15T06:28:22.946Z,21.38
2023-04-15T06:30:49.811Z,24.65
2023-04-15T06:33:18.765Z,20.27
2023-04-15T06:35:45.992Z,19.92
2023-04-15T06:38:12.778Z,20.52
2023-04-15T06:40:39.445Z,24.75
2023-04-15T06:43:06.761Z,25.75
2023-04-15T06:45:33.733Z,22.08
2023-04-15T06:48:00.739Z,23.05
2023-04-15T06:50:27.762Z,21.60
2023-04-15T06:52:56.075Z,23.50
2023-04-15T06:55:23.071Z,21.60
2023-04-15T06:57:49.854Z,21.98
2023-04-15T07:00:17.830Z,23.48
2023-04-15T07:02:45.170Z,25.65
2023-04-15T07:05:12.870Z,23.67
2023-04-15T07:07:39.766Z,19.92
2023-04-15T07:10:07.963Z,21.23
2023-04-15T07:12:35.877Z,20.98
2023-04-15T07:15:02.943Z,21.40
2023-04-15T07:17:29.748Z,20.05
2023-04-15T07:19:56.641Z,27.50
2023-04-15T07:22:23.394Z,22.98
2023-04-15T07:24:50.560Z,22.15
2023-04-15T07:27:17.915Z,17.23
2023-04-15T07:29:44.832Z,14.75
2023-04-15T07:32:11.993Z,17.17
2023-04-15T07:34:39.992Z,17.63
2023-04-15T07:37:06.765Z,14.32
2023-04-15T07:39:33.597Z,15.90
2023-04-15T07:42:00.479Z,15.93
2023-04-15T07:44:28.191Z,14.35
2023-04-15T07:46:56.245Z,16.27
2023-04-15T07:49:23.419Z,14.00
2023-04-15T07:51:51.082Z,13.95
2023-04-15T07:54:17.788Z,10.70
2023-04-15T07:56:44.572Z,12.93
2023-04-15T07:59:11.722Z,12.23
2023-04-15T08:01:41.074Z,17.13
2023-04-15T08:04:08.322Z,10.75
2023-04-15T08:06:35.596Z,12.65
2023-04-15T08:09:02.783Z,12.07
2023-04-15T08:11:29.796Z,8.40
2023-04-15T08:13:56.546Z,8.75
2023-04-15T08:16:25.383Z,11.25
2023-04-15T08:18:53.960Z,11.15
2023-04-15T08:21:21.396Z,8.45
2023-04-15T08:23:52.018Z,11.85
2023-04-15T08:26:20.022Z,8.00
2023-04-15T08:28:47.034Z,9.07
2023-04-15T08:31:16.180Z,7.18
2023-04-15T08:33:43.118Z,11.07
2023-04-15T08:36:09.949Z,10.23
2023-04-15T08:38:37.477Z,7.22
2023-04-15T08:41:20.134Z,9.70
2023-04-15T08:43:57.302Z,10.38
2023-04-15T08:46:24.282Z,9.50
2023-04-15T08:48:54.655Z,7.88
2023-04-15T08:51:22.742Z,9.80
2023-04-15T08:53:52.476Z,11.07
2023-04-15T08:56:21.277Z,10.13
2023-04-15T08:58:48.563Z,7.45
2023-04-15T09:01:15.950Z,8.32
2023-04-15T09:03:44.002Z,10.88
2023-04-15T09:06:11.761Z,8.80
2023-04-15T09:08:38.937Z,8.65
2023-04-15T09:11:05.885Z,6.72
2023-04-15T09:13:32.890Z,6.90
2023-04-15T09:16:04.745Z,8.20
2023-04-15T09:18:36.708Z,5.17
2023-04-15T09:21:11.225Z,6.53
2023-04-15T09:23:39.935Z,6.07
2023-04-15T09:26:07.348Z,10.13
2023-04-15T09:28:43.154Z,6.55
2023-04-15T09:31:10.839Z,6.10
2023-04-15T09:33:56.420Z,8.45
2023-04-15T09:36:25.414Z,5.88
2023-04-15T09:38:59.791Z,6.75
2023-04-15T09:41:28.715Z,7.28
2023-04-15T09:43:55.712Z,5.38
2023-04-15T09:46:44.869Z,5.68
2023-04-15T09:49:13.016Z,5.05
2023-04-15T09:51:39.932Z,6.82
2023-04-15T09:54:07.352Z,6.63
2023-04-15T09:56:41.864Z,5.50
2023-04-15T09:59:09.586Z,6.35
2023-04-15T10:01:43.068Z,5.40
2023-04-15T10:04:12.618Z,5.82
2023-04-15T10:06:48.702Z,5.68
2023-04-15T10:09:15.959Z,6.60
2023-04-15T10:11:43.420Z,7.70
2023-04-15T10:14:11.460Z,7.28
2023-04-15T10:16:42.742Z,4.35
2023-04-15T10:19:10.763Z,8.05
2023-04-15T10:21:38.028Z,5.28
2023-04-15T10:24:06.092Z,5.43
2023-04-15T10:26:33.168Z,4.97
2023-04-15T10:29:01.243Z,6.25
2023-04-15T10:31:30.183Z,4.18
2023-04-15T10:33:57.995Z,3.80
2023-04-15T10:36:25.540Z,6.22
2023-04-15T10:38:52.674Z,4.68
2023-04-15T10:41:23.632Z,5.03
2023-04-15T10:43:58.064Z,3.92
2023-04-15T10:46:41.626Z,3.55
2023-04-15T10:49:26.978Z,3.45
2023-04-15T10:51:58.518Z,3.97
2023-04-15T10:54:25.383Z,6.68
2023-04-15T10:57:06.056Z,4.25
2023-04-15T10:59:36.065Z,4.10
2023-04-15T11:02:07.354Z,5.70
2023-04-15T11:04:55.812Z,4.55
2023-04-15T11:07:44.965Z,5.03
2023-04-15T11:10:14.450Z,4.18
2023-04-15T11:12:42.171Z,3.42
2023-04-15T11:15:40.277Z,4.38
2023-04-15T11:18:13.717Z,4.22
2023-04-15T11:20:42.746Z,4.05
2023-04-15T11:23:15.349Z,5.18
2023-04-15T11:25:45.788Z,4.53
2023-04-15T11:28:13.535Z,3.65
2023-04-15T11:30:42.094Z,6.07
2023-04-15T11:33:12.018Z,4.40
2023-04-15T11:35:40.941Z,7.03
2023-04-15T11:38:13.093Z,5.70
2023-04-15T11:40:40.855Z,6.05
2023-04-15T11:43:09.305Z,7.80
2023-04-15T11:45:49.281Z,5.28
2023-04-15T11:48:18.363Z,7.10
2023-04-15T11:50:45.435Z,4.03
2023-04-15T11:53:13.867Z,6.28
2023-04-15T11:55:47.685Z,7.85
2023-04-15T11:58:21.859Z,3.10
2023-04-15T12:00:58.827Z,3.90
2023-04-15T12:03:26.041Z,6.35
2023-04-15T12:06:24.580Z,5.97
2023-04-15T12:09:30.930Z,4.50
2023-04-15T12:12:00.027Z,4.45
2023-04-15T12:14:30.711Z,3.33
2023-04-15T12:17:03.126Z,5.97
2023-04-15T12:19:38.424Z,3.45
2023-04-15T12:22:09.976Z,4.40
2023-04-15T12:24:43.926Z,3.30
2023-04-15T12:27:15.143Z,5.60
2023-04-15T12:29:43.282Z,3.30
2023-04-15T12:32:15.550Z,3.58
2023-04-15T12:34:50.959Z,5.97
2023-04-15T12:37:17.890Z,5.38
2023-04-15T12:39:47.947Z,6.63
2023-04-15T12:42:16.395Z,4.93
2023-04-15T12:44:43.807Z,4.05
2023-04-15T12:47:11.795Z,3.80
2023-04-15T12:49:39.464Z,6.35
2023-04-15T12:52:06.972Z,3.80
2023-04-15T12:54:34.854Z,6.15
2023-04-15T12:57:06.034Z,4.00
2023-04-15T12:59:34.139Z,4.05
2023-04-15T13:02:02.711Z,3.60
2023-04-15T13:04:31.502Z,5.85
2023-04-15T13:06:59.197Z,4.57
2023-04-15T13:09:26.424Z,3.53
2023-04-15T13:11:54.706Z,5.70
2023-04-15T13:14:21.824Z,3.85
2023-04-15T13:16:50.753Z,15.70
2023-04-15T13:19:17.867Z,4.28
2023-04-15T13:21:47.389Z,6.82
2023-04-15T13:24:14.429Z,4.25
2023-04-15T13:26:41.884Z,6.68
2023-04-15T13:29:08.811Z,6.05
2023-04-15T13:31:35.908Z,5.68
2023-04-15T13:36:29.546Z,4.40
2023-04-15T13:39:00.196Z,5.47
2023-04-15T13:41:27.316Z,6.05
2023-04-15T13:43:58.366Z,4.38
2023-04-15T13:46:26.143Z,3.65
2023-04-15T13:48:53.645Z,5.25
2023-04-15T13:51:20.489Z,7.68
2023-04-15T13:53:47.378Z,7.32
2023-04-15T13:56:19.418Z,5.25
2023-04-15T13:58:46.240Z,2.47
2023-04-15T14:01:13.329Z,6.53
2023-04-15T14:03:40.659Z,4.43
2023-04-15T14:06:07.650Z,3.92
2023-04-15T14:08:34.533Z,3.92
2023-04-15T14:11:01.464Z,4.55
2023-04-15T14:13:28.304Z,2.83
2023-04-15T14:15:55.409Z,5.28
2023-04-15T14:18:22.872Z,6.93
2023-04-15T14:20:50.826Z,2.78
2023-04-15T14:23:17.565Z,3.55
2023-04-15T14:25:46.694Z,5.45
2023-04-15T14:28:15.355Z,5.65
2023-04-15T14:30:42.125Z,3.80
2023-04-15T14:33:09.012Z,3.97
2023-04-15T14:35:36.228Z,4.03
2023-04-15T14:38:03.034Z,9.38
2023-04-15T14:40:33.710Z,5.90
2023-04-15T14:43:09.671Z,5.43
2023-04-15T14:45:42.206Z,3.92
2023-04-15T14:48:12.866Z,6.88
2023-04-15T14:50:40.359Z,6.68
2023-04-15T14:53:07.092Z,5.55
2023-04-15T14:55:33.840Z,7.75
2023-04-15T14:58:02.190Z,9.05
2023-04-15T15:00:28.888Z,6.65
2023-04-15T15:02:55.856Z,10.52
2023-04-15T15:05:23.354Z,6.38
2023-04-15T15:07:50.203Z,8.68
2023-04-15T15:10:17.157Z,47.22
2023-04-15T15:13:06.236Z,11.43
2023-04-15T15:15:34.353Z,10.48
2023-04-15T15:18:01.891Z,25.00
2023-04-15T15:20:29.324Z,9.05
2023-04-15T15:22:56.411Z,8.68
2023-04-15T15:25:23.174Z,29.30
2023-04-15T15:27:50.048Z,9.68
2023-04-15T15:30:19.226Z,9.63
2023-04-15T15:32:47.105Z,10.02
2023-04-15T15:35:13.879Z,11.45
2023-04-15T15:37:45.040Z,11.80
2023-04-15T15:40:14.608Z,9.85
2023-04-15T15:42:41.823Z,11.27
2023-04-15T15:45:08.750Z,17.58
2023-04-15T15:47:38.339Z,18.27
2023-04-15T15:50:06.393Z,9.18
2023-04-15T15:52:33.521Z,10.55
2023-04-15T15:55:00.878Z,12.13
2023-04-15T15:57:27.738Z,13.85
2023-04-15T16:00:04.817Z,11.70
2023-04-15T16:03:04.514Z,9.98
2023-04-15T16:05:24.540Z,13.02
2023-04-15T16:07:51.282Z,13.45
2023-04-15T16:10:18.334Z,12.13
2023-04-15T16:12:45.110Z,12.77
2023-04-15T16:15:12.679Z,17.92
2023-04-15T16:17:39.559Z,16.45
2023-04-15T16:20:07.002Z,10.38
2023-04-15T16:22:34.956Z,11.02
2023-04-15T16:25:01.825Z,11.93
2023-04-15T16:27:28.735Z,12.43
2023-04-15T16:29:55.704Z,11.43
2023-04-15T16:32:22.690Z,17.85
2023-04-15T16:34:49.802Z,11.73
2023-04-15T16:37:16.922Z,17.58
2023-04-15T16:39:43.824Z,17.23
2023-04-15T16:42:10.739Z,18.40
2023-04-15T16:44:37.798Z,19.65
2023-04-15T16:47:04.645Z,11.45
2023-04-15T16:49:31.337Z,11.75
2023-04-15T16:51:58.258Z,16.00
2023-04-15T16:54:25.043Z,11.95
2023-04-15T16:56:52.032Z,15.98
2023-04-15T16:59:18.998Z,12.90
2023-04-15T17:01:45.936Z,17.38
2023-04-15T17:04:12.860Z,20.25
2023-04-15T17:06:39.679Z,14.77
2023-04-15T17:09:06.487Z,22.55
2023-04-15T17:11:35.032Z,18.85
2023-04-15T17:14:03.089Z,15.13
2023-04-15T17:16:29.928Z,15.50
2023-04-15T17:18:59.216Z,19.73
2023-04-15T17:21:30.443Z,16.90
2023-04-15T17:23:57.320Z,15.25
2023-04-15T17:26:24.080Z,24.23
2023-04-15T17:28:50.880Z,16.08
2023-04-15T17:31:17.604Z,16.45
2023-04-15T17:33:55.278Z,16.42
2023-04-15T17:36:29.115Z,15.13
2023-04-15T17:38:56.455Z,21.85
2023-04-15T17:41:24.926Z,19.42
2023-04-15T17:43:51.669Z,19.23
2023-04-15T17:46:19.370Z,21.77
2023-04-15T17:48:47.639Z,24.77
2023-04-15T17:51:15.083Z,18.67
2023-04-15T17:53:42.095Z,21.13
2023-04-15T17:56:08.889Z,23.83
2023-04-15T17:58:35.906Z,21.52
2023-04-15T18:01:03.654Z,22.80
2023-04-15T18:03:30.819Z,23.65
2023-04-15T18:05:57.666Z,20.92
2023-04-15T18:08:24.420Z,27.75
2023-04-15T18:10:51.059Z,29.85
2023-04-15T18:13:17.813Z,26.77
2023-04-15T18:15:46.874Z,36.80
2023-04-15T18:18:14.266Z,23.08
2023-04-15T18:20:40.996Z,28.60
2023-04-15T18:23:08.055Z,23.10
2023-04-15T18:25:35.145Z,26.92
2023-04-15T18:28:02.185Z,25.13
2023-04-15T18:30:29.088Z,27.83
2023-04-15T18:32:56.376Z,28.23
2023-04-15T18:35:24.334Z,35.60
2023-04-15T18:37:52.702Z,25.65
2023-04-15T18:40:19.741Z,27.65
2023-04-15T18:42:46.464Z,31.13
2023-04-15T18:45:13.254Z,28.92
2023-04-15T18:47:40.380Z,36.28
2023-04-15T18:50:08.020Z,34.95
2023-04-15T18:52:34.961Z,26.45
2023-04-15T18:55:03.298Z,29.13
2023-04-15T18:57:34.795Z,36.60
2023-04-15T19:00:02.729Z,31.75
2023-04-15T19:02:29.546Z,32.15
2023-04-15T19:04:56.559Z,34.33
2023-04-15T19:07:23.406Z,34.75
2023-04-15T19:09:50.103Z,30.67
2023-04-15T19:12:17.082Z,32.70
2023-04-15T19:14:43.890Z,24.52
2023-04-15T19:17:11.233Z,32.78
2023-04-15T19:19:38.665Z,37.83
2023-04-15T19:22:05.753Z,30.40
2023-04-15T19:24:33.405Z,42.78
2023-04-15T19:27:01.628Z,37.97
2023-04-15T19:29:28.823Z,36.70
2023-04-15T19:31:56.249Z,34.97
2023-04-15T19:34:23.040Z,32.50
2023-04-15T19:36:49.825Z,32.92
2023-04-15T19:39:16.883Z,36.50
2023-04-15T19:41:44.267Z,38.72
2023-04-15T19:44:14.333Z,32.08
2023-04-15T19:46:44.066Z,31.80
2023-04-15T19:49:11.401Z,32.15
2023-04-15T19:51:38.116Z,35.42
2023-04-15T19:54:04.862Z,33.42
2023-04-15T19:56:34.134Z,36.63
2023-04-15T19:59:02.270Z,35.45
2023-04-15T20:01:29.181Z,37.47
2023-04-15T20:03:56.254Z,31.38
2023-04-15T20:06:23.285Z,33.67
2023-04-15T20:08:50.002Z,37.47
2023-04-15T20:11:16.907Z,40.55
2023-04-15T20:13:43.683Z,35.22
2023-04-15T20:16:11.659Z,37.33
2023-04-15T20:18:38.420Z,41.17
2023-04-15T20:21:05.514Z,40.47
2023-04-15T20:23:32.456Z,37.38
2023-04-15T20:25:59.237Z,34.85
2023-04-15T20:28:27.476Z,41.70
2023-04-15T20:30:54.297Z,38.10
2023-04-15T20:33:22.203Z,46.75
2023-04-15T20:35:48.957Z,38.53
2023-04-15T20:38:16.423Z,34.47
2023-04-15T20:40:43.535Z,37.38
2023-04-15T20:43:12.990Z,35.60
2023-04-15T20:45:39.922Z,39.58
2023-04-15T20:48:07.000Z,36.58
2023-04-15T20:50:33.986Z,47.00
2023-04-15T20:53:00.860Z,41.70
2023-04-15T20:55:28.998Z,41.40
2023-04-15T20:57:59.266Z,46.80
2023-04-15T21:00:26.096Z,42.35
2023-04-15T21:02:55.221Z,41.53
2023-04-15T21:05:22.248Z,41.83
2023-04-15T21:07:49.248Z,41.47
2023-04-15T21:10:16.245Z,46.10
2023-04-15T21:12:43.643Z,42.15
2023-04-15T21:15:10.883Z,40.72
2023-04-15T21:17:37.885Z,48.85
2023-04-15T21:20:05.299Z,45.47
2023-04-15T21:22:32.573Z,46.08
2023-04-15T21:24:59.359Z,47.55
2023-04-15T21:27:26.301Z,41.67
2023-04-15T21:29:53.145Z,49.40
2023-04-15T21:32:19.977Z,48.33
2023-04-15T21:34:47.196Z,52.42
2023-04-15T21:37:13.946Z,50.03
2023-04-15T21:39:40.624Z,59.13
2023-04-15T21:42:07.373Z,46.38
2023-04-15T21:44:34.186Z,48.67
2023-04-15T21:47:01.225Z,46.75
2023-04-15T21:49:28.272Z,49.47
2023-04-15T21:51:55.032Z,56.17
2023-04-15T21:54:21.837Z,55.40
2023-04-15T21:56:49.959Z,53.67
2023-04-15T21:59:16.684Z,52.45
2023-04-15T22:01:43.566Z,52.28
2023-04-15T22:04:11.191Z,50.00
2023-04-15T22:06:38.620Z,55.70
2023-04-15T22:09:05.746Z,65.53
2023-04-15T22:11:32.523Z,53.30
2023-04-15T22:13:59.710Z,55.60
2023-04-15T22:16:27.268Z,59.58
2023-04-15T22:18:54.797Z,52.30
2023-04-15T22:21:21.656Z,55.40
2023-04-15T22:23:48.938Z,54.40
2023-04-15T22:26:15.854Z,59.95
2023-04-15T22:28:42.566Z,57.75
2023-04-15T22:31:09.686Z,60.88
2023-04-15T22:33:36.881Z,65.70
2023-04-15T22:36:03.794Z,56.80
2023-04-15T22:38:30.917Z,59.55
2023-04-15T22:40:58.637Z,62.55
2023-04-15T22:43:28.198Z,58.42
2023-04-15T22:45:57.760Z,52.30
2023-04-15T22:48:25.822Z,58.45
2023-04-15T22:50:53.968Z,59.47
2023-04-15T22:53:23.395Z,58.85
2023-04-15T22:55:50.148Z,65.78
2023-04-15T22:58:18.308Z,57.85
2023-04-15T23:00:45.474Z,64.65
2023-04-15T23:03:12.422Z,58.35
2023-04-15T23:05:41.061Z,59.60
2023-04-15T23:08:08.405Z,67.05
2023-04-15T23:10:35.777Z,61.78
2023-04-15T23:13:02.708Z,64.22
2023-04-15T23:15:29.444Z,67.85
2023-04-15T23:17:56.465Z,58.97
2023-04-15T23:20:23.241Z,64.30
2023-04-15T23:22:49.922Z,66.53
2023-04-15T23:25:16.877Z,61.85
2023-04-15T23:27:43.625Z,72.85
2023-04-15T23:30:10.585Z,69.80
2023-04-15T23:32:37.520Z,67.10
2023-04-15T23:35:04.838Z,72.75
2023-04-15T23:37:31.885Z,71.55
2023-04-15T23:39:58.872Z,64.82
2023-04-15T23:42:26.088Z,65.85
2023-04-15T23:44:53.041Z,68.15
2023-04-15T23:47:20.164Z,67.40
2023-04-15T23:49:47.059Z,70.93
2023-04-15T23:52:13.805Z,64.38
2023-04-15T23:54:40.596Z,64.00
2023-04-15T23:57:07.659Z,76.90
2023-04-15T23:59:34.581Z,73.22
